createdAt,value
2023-11-15T00:00:26.705Z,9.87
2023-11-15T00:02:53.970Z,9.88
2023-11-15T00:05:21.341Z,9.88
2023-11-15T00:07:48.498Z,9.89
2023-11-15T00:10:15.378Z,9.88
2023-11-15T00:12:43.820Z,9.89
2023-11-15T00:15:10.950Z,9.89
2023-11-15T00:17:38.106Z,9.90
2023-11-15T00:20:05.826Z,9.91
2023-11-15T00:22:33.077Z,9.92
2023-11-15T00:25:00.333Z,9.93
2023-11-15T00:27:30.097Z,9.94
2023-11-15T00:29:58.006Z,9.94
2023-11-15T00:32:25.017Z,9.95
2023-11-15T00:34:52.002Z,9.95
2023-11-15T00:37:18.877Z,9.96
2023-11-15T00:39:45.825Z,9.96
2023-11-15T00:42:12.885Z,9.96
2023-11-15T00:44:42.748Z,9.96
2023-11-15T00:47:09.709Z,9.97
2023-11-15T00:49:38.835Z,9.97
2023-11-15T00:52:06.222Z,9.97
2023-11-15T00:54:33.959Z,9.97
2023-11-15T00:57:00.875Z,9.98
2023-11-15T00:59:38.447Z,9.99
2023-11-15T01:02:06.686Z,10.00
2023-11-15T01:04:34.070Z,10.01
2023-11-15T01:07:01.273Z,10.00
2023-11-15T01:09:28.902Z,10.00
2023-11-15T01:11:56.736Z,10.00
2023-11-15T01:14:23.846Z,9.99
2023-11-15T01:16:50.979Z,9.99
2023-11-15T01:19:17.910Z,9.99
2023-11-15T01:21:44.892Z,9.99
2023-11-15T01:24:11.823Z,9.99
2023-11-15T01:26:39.030Z,9.99
2023-11-15T01:29:06.078Z,9.99
2023-11-15T01:31:33.031Z,9.98
2023-11-15T01:34:00.185Z,9.98
2023-11-15T01:36:27.403Z,9.96
2023-11-15T01:38:54.504Z,9.97
2023-11-15T01:41:21.504Z,9.97
2023-11-15T01:43:48.389Z,9.96
2023-11-15T01:46:16.012Z,9.96
2023-11-15T01:48:43.143Z,9.95
2023-11-15T01:51:11.427Z,9.94
2023-11-15T01:53:40.175Z,9.93
2023-11-15T01:56:09.543Z,9.93
2023-11-15T01:58:36.732Z,9.92
2023-11-15T02:01:06.465Z,9.91
2023-11-15T02:03:33.670Z,9.91
2023-11-15T02:06:00.773Z,9.90
2023-11-15T02:08:28.819Z,9.89
2023-11-15T02:10:55.857Z,9.88
2023-11-15T02:13:27.066Z,9.87
2023-11-15T02:15:58.109Z,9.86
2023-11-15T02:18:26.971Z,9.84
2023-11-15T02:20:54.674Z,9.82
2023-11-15T02:23:25.213Z,9.81
2023-11-15T02:25:52.534Z,9.79
2023-11-15T02:28:19.998Z,9.77
2023-11-15T02:30:47.238Z,9.75
2023-11-15T02:33:14.617Z,9.73
2023-11-15T02:35:42.363Z,9.70
2023-11-15T02:38:09.511Z,9.68
2023-11-15T02:40:37.169Z,9.67
2023-11-15T02:43:11.505Z,9.66
2023-11-15T02:45:38.388Z,9.65
2023-11-15T02:48:05.646Z,9.64
2023-11-15T02:50:32.867Z,9.63
2023-11-15T02:53:00.548Z,9.62
2023-11-15T02:55:27.460Z,9.61
2023-11-15T02:57:54.505Z,9.59
2023-11-15T03:00:21.493Z,9.58
2023-11-15T03:02:50.727Z,9.56
2023-11-15T03:05:18.522Z,9.56
2023-11-15T03:07:45.700Z,9.55
2023-11-15T03:10:12.829Z,9.54
2023-11-15T03:12:39.920Z,9.54
2023-11-15T03:15:07.605Z,9.54
2023-11-15T03:17:34.879Z,9.54
2023-11-15T03:20:06.708Z,9.54
2023-11-15T03:22:34.521Z,9.54
2023-11-15T03:25:01.832Z,9.55
2023-11-15T03:27:29.452Z,9.55
2023-11-15T03:29:56.452Z,9.55
2023-11-15T03:32:24.297Z,9.56
2023-11-15T03:34:51.494Z,9.56
2023-11-15T03:37:18.398Z,9.57
2023-11-15T03:39:46.495Z,9.58
2023-11-15T03:42:13.674Z,9.59
2023-11-15T03:44:40.712Z,9.59
2023-11-15T03:47:07.676Z,9.60
2023-11-15T03:49:34.742Z,9.60
2023-11-15T03:52:01.692Z,9.61
2023-11-15T03:54:28.834Z,9.62
2023-11-15T03:56:55.734Z,9.63
2023-11-15T03:59:23.033Z,9.63
2023-11-15T04:01:55.249Z,9.63
2023-11-15T04:04:26.345Z,9.63
2023-11-15T04:06:53.850Z,9.63
2023-11-15T04:09:22.085Z,9.62
2023-11-15T04:11:49.814Z,9.62
2023-11-15T04:14:18.489Z,9.62
2023-11-15T04:16:45.730Z,9.62
2023-11-15T04:19:12.733Z,9.62
2023-11-15T04:21:39.666Z,9.62
2023-11-15T04:24:07.021Z,9.62
2023-11-15T04:26:33.985Z,9.63
2023-11-15T04:29:00.943Z,9.63
2023-11-15T04:31:28.753Z,9.64
2023-11-15T04:33:56.651Z,9.64
2023-11-15T04:36:24.717Z,9.65
2023-11-15T04:38:51.642Z,9.66
2023-11-15T04:41:18.739Z,9.66
2023-11-15T04:43:45.668Z,9.66
2023-11-15T04:46:12.677Z,9.67
2023-11-15T04:48:40.567Z,9.66
2023-11-15T04:51:07.951Z,9.66
2023-11-15T04:53:35.068Z,9.67
2023-11-15T04:56:03.783Z,9.66
2023-11-15T04:58:32.048Z,9.66
2023-11-15T05:00:59.380Z,9.67
2023-11-15T05:03:27.004Z,9.68
2023-11-15T05:05:54.223Z,9.68
2023-11-15T05:08:21.172Z,9.68
2023-11-15T05:10:48.203Z,9.69
2023-11-15T05:13:15.102Z,9.69
2023-11-15T05:15:42.140Z,9.68
2023-11-15T05:18:09.255Z,9.68
2023-11-15T05:20:37.065Z,9.68
2023-11-15T05:23:04.401Z,9.68
2023-11-15T05:25:31.516Z,9.67
2023-11-15T05:27:58.575Z,9.66
2023-11-15T05:30:25.582Z,9.66
2023-11-15T05:32:52.703Z,9.66
2023-11-15T05:35:19.817Z,9.66
2023-11-15T05:37:47.044Z,9.65
2023-11-15T05:40:14.509Z,9.65
2023-11-15T05:42:41.447Z,9.65
2023-11-15T05:45:12.096Z,9.65
2023-11-15T05:47:40.391Z,9.65
2023-11-15T05:50:11.333Z,9.65
2023-11-15T05:52:41.454Z,9.64
2023-11-15T05:55:10.134Z,9.64
2023-11-15T05:57:37.481Z,9.64
2023-11-15T06:00:13.337Z,9.63
2023-11-15T06:02:45.357Z,9.62
2023-11-15T06:05:13.072Z,9.62
2023-11-15T06:07:40.172Z,9.61
2023-11-15T06:10:10.265Z,9.61
2023-11-15T06:12:40.117Z,9.59
2023-11-15T06:15:10.929Z,9.58
2023-11-15T06:17:40.783Z,9.56
2023-11-15T06:20:11.724Z,9.54
2023-11-15T06:22:40.821Z,9.52
2023-11-15T06:25:09.678Z,9.49
2023-11-15T06:27:37.493Z,9.48
2023-11-15T06:30:12.272Z,9.45
2023-11-15T06:36:51.825Z,9.37
2023-11-15T06:39:22.458Z,9.33
2023-11-15T06:41:52.004Z,9.30
2023-11-15T06:44:19.048Z,9.28
2023-11-15T06:46:46.235Z,9.26
2023-11-15T06:49:13.395Z,9.24
2023-11-15T06:51:47.233Z,9.23
2023-11-15T06:54:16.949Z,9.23
2023-11-15T06:57:05.369Z,9.21
2023-11-15T06:59:45.296Z,9.21
2023-11-15T07:02:24.958Z,9.20
2023-11-15T07:05:17.374Z,9.19
2023-11-15T07:07:48.615Z,9.19
2023-11-15T07:10:17.198Z,9.17
2023-11-15T07:13:03.671Z,9.17
2023-11-15T07:16:21.301Z,9.17
2023-11-15T07:18:49.908Z,9.16
2023-11-15T07:21:18.032Z,9.15
2023-11-15T07:23:49.645Z,9.14
2023-11-15T07:26:17.625Z,9.12
2023-11-15T07:28:55.486Z,9.12
2023-11-15T07:31:48.024Z,9.11
2023-11-15T07:34:30.225Z,9.11
2023-11-15T07:37:58.059Z,9.09
2023-11-15T07:40:19.672Z,9.09
2023-11-15T07:42:46.776Z,9.08
2023-11-15T07:45:15.377Z,9.09
2023-11-15T07:47:45.818Z,9.08
2023-11-15T07:50:13.325Z,9.09
2023-11-15T07:52:41.272Z,9.10
2023-11-15T07:55:08.719Z,9.11
2023-11-15T07:57:36.080Z,9.12
2023-11-15T08:00:05.830Z,9.13
2023-11-15T08:02:39.825Z,9.13
2023-11-15T08:05:11.743Z,9.14
2023-11-15T08:07:39.306Z,9.14
2023-11-15T08:10:06.742Z,9.14
2023-11-15T08:12:43.938Z,9.14
2023-11-15T08:15:16.174Z,9.13
2023-11-15T08:17:48.064Z,9.11
2023-11-15T08:20:16.269Z,9.09
2023-11-15T08:22:45.020Z,9.07
2023-11-15T08:25:14.419Z,9.05
2023-11-15T08:27:43.462Z,9.03
2023-11-15T08:30:21.438Z,9.01
2023-11-15T08:32:50.248Z,9.00
2023-11-15T08:35:18.978Z,9.00
2023-11-15T08:37:46.135Z,8.99
2023-11-15T08:42:43.847Z,8.99
2023-11-15T08:45:11.460Z,8.99
2023-11-15T08:47:38.676Z,8.99
2023-11-15T08:50:09.567Z,9.00
2023-11-15T08:52:40.734Z,9.00
2023-11-15T08:55:09.970Z,9.00
2023-11-15T08:57:37.087Z,9.01
2023-11-15T09:00:07.654Z,9.01
2023-11-15T09:02:35.971Z,9.03
2023-11-15T09:05:11.428Z,9.03
2023-11-15T09:07:38.820Z,9.04
2023-11-15T09:10:10.279Z,9.03
2023-11-15T09:12:38.360Z,9.02
2023-11-15T09:15:16.283Z,9.02
2023-11-15T09:17:53.157Z,9.03
2023-11-15T09:20:35.264Z,9.03
2023-11-15T09:23:04.280Z,9.03
2023-11-15T09:25:32.420Z,9.03
2023-11-15T09:28:04.940Z,9.03
2023-11-15T09:30:34.090Z,9.04
2023-11-15T09:33:07.126Z,9.04
2023-11-15T09:35:40.094Z,9.05
2023-11-15T09:38:16.788Z,9.07
2023-11-15T09:40:52.105Z,9.07
2023-11-15T09:43:22.050Z,9.08
2023-11-15T09:45:50.801Z,9.08
2023-11-15T09:48:19.391Z,9.08
2023-11-15T09:50:53.785Z,9.09
2023-11-15T09:53:25.034Z,9.12
2023-11-15T09:55:53.657Z,9.12
2023-11-15T09:58:23.267Z,9.14
2023-11-15T10:00:50.598Z,9.17
2023-11-15T10:03:20.937Z,9.19
2023-11-15T10:06:11.673Z,9.21
2023-11-15T10:08:53.835Z,9.24
2023-11-15T10:11:31.473Z,9.27
2023-11-15T10:14:17.945Z,9.31
2023-11-15T10:16:55.225Z,9.33
2023-11-15T10:19:32.829Z,9.36
2023-11-15T10:22:11.821Z,9.36
2023-11-15T10:25:15.697Z,9.37
2023-11-15T10:27:43.267Z,9.38
2023-11-15T10:35:45.800Z,9.43
2023-11-15T10:38:24.823Z,9.42
2023-11-15T10:44:47.482Z,9.44
2023-11-15T10:47:22.886Z,9.45
2023-11-15T10:50:00.220Z,9.47
2023-11-15T10:52:31.455Z,9.49
2023-11-15T10:55:04.288Z,9.51
2023-11-15T10:58:28.492Z,9.53
2023-11-15T11:01:24.706Z,9.56
2023-11-15T11:04:17.862Z,9.58
2023-11-15T11:06:52.961Z,9.61
2023-11-15T11:09:28.673Z,9.65
2023-11-15T11:12:12.996Z,9.68
2023-11-15T11:14:41.166Z,9.71
2023-11-15T11:17:39.186Z,9.72
2023-11-15T11:20:31.543Z,9.72
2023-11-15T11:23:26.946Z,9.72
2023-11-15T11:26:36.887Z,9.71
2023-11-15T11:29:05.249Z,9.69
2023-11-15T11:31:33.011Z,9.69
2023-11-15T11:34:10.082Z,9.69
2023-11-15T11:36:51.435Z,9.70
2023-11-15T11:39:24.101Z,9.70
2023-11-15T11:41:56.303Z,9.70
2023-11-15T11:44:26.691Z,9.71
2023-11-15T11:47:13.074Z,9.73
2023-11-15T11:49:50.224Z,9.75
2023-11-15T11:52:18.794Z,9.79
2023-11-15T11:54:52.850Z,9.83
2023-11-15T11:57:26.225Z,9.87
2023-11-15T12:00:16.081Z,9.91
2023-11-15T12:02:54.490Z,9.95
2023-11-15T12:05:53.776Z,9.99
2023-11-15T12:08:24.502Z,9.98
2023-11-15T12:10:52.366Z,9.96
2023-11-15T12:13:23.355Z,9.96
2023-11-15T12:15:51.883Z,9.97
2023-11-15T12:18:20.335Z,9.98
2023-11-15T12:20:48.412Z,10.00
2023-11-15T12:23:18.561Z,10.01
2023-11-15T12:25:48.885Z,10.01
2023-11-15T12:28:27.959Z,10.02
2023-11-15T12:30:57.071Z,10.01
2023-11-15T12:33:25.099Z,10.01
2023-11-15T12:35:55.084Z,10.00
2023-11-15T12:38:23.701Z,9.97
2023-11-15T12:41:04.828Z,9.94
2023-11-15T12:43:39.625Z,9.91
2023-11-15T12:46:18.721Z,9.87
2023-11-15T12:48:50.353Z,9.83
2023-11-15T12:51:20.025Z,9.80
2023-11-15T12:53:53.334Z,9.75
2023-11-15T12:56:20.874Z,9.71
2023-11-15T12:58:57.347Z,9.68
2023-11-15T13:01:24.672Z,9.64
2023-11-15T13:03:56.432Z,9.61
2023-11-15T13:06:27.852Z,9.58
2023-11-15T13:08:59.343Z,9.54
2023-11-15T13:11:26.447Z,9.51
2023-11-15T13:13:53.579Z,9.49
2023-11-15T13:16:21.607Z,9.46
2023-11-15T13:18:49.795Z,9.43
2023-11-15T13:21:18.260Z,9.40
2023-11-15T13:23:46.200Z,9.36
2023-11-15T13:26:17.118Z,9.33
2023-11-15T13:28:46.140Z,9.31
2023-11-15T13:31:19.047Z,9.29
2023-11-15T13:33:50.312Z,9.28
2023-11-15T13:36:20.235Z,9.26
2023-11-15T13:38:47.926Z,9.24
2023-11-15T13:41:18.646Z,9.21
2023-11-15T13:43:50.254Z,9.20
2023-11-15T13:46:19.989Z,9.18
2023-11-15T13:48:47.292Z,9.16
2023-11-15T13:51:19.848Z,9.16
2023-11-15T13:53:47.156Z,9.15
2023-11-15T13:56:14.246Z,9.13
2023-11-15T13:58:41.386Z,9.13
2023-11-15T14:01:09.555Z,9.12
2023-11-15T14:03:36.605Z,9.12
2023-11-15T14:06:07.022Z,9.12
2023-11-15T14:11:14.258Z,9.11
2023-11-15T14:13:43.894Z,9.10
2023-11-15T14:16:11.416Z,9.10
2023-11-15T14:18:38.511Z,9.09
2023-11-15T14:21:06.386Z,9.06
2023-11-15T14:23:34.806Z,9.02
2023-11-15T14:26:03.414Z,8.99
2023-11-15T14:28:32.128Z,8.97
2023-11-15T14:30:59.574Z,8.93
2023-11-15T14:33:26.632Z,8.91
2023-11-15T14:35:53.949Z,8.89
2023-11-15T14:38:27.443Z,8.86
2023-11-15T14:40:56.900Z,8.81
2023-11-15T14:43:24.095Z,8.76
2023-11-15T14:45:51.619Z,8.72
2023-11-15T14:48:18.744Z,8.67
2023-11-15T14:50:46.053Z,8.63
2023-11-15T14:53:28.355Z,8.60
2023-11-15T14:55:55.295Z,8.57
2023-11-15T14:58:26.892Z,8.55
2023-11-15T15:00:54.375Z,8.52
2023-11-15T15:03:24.322Z,8.50
2023-11-15T15:05:53.084Z,8.48
2023-11-15T15:08:22.979Z,8.46
2023-11-15T15:10:54.892Z,8.44
2023-11-15T15:13:27.786Z,8.42
2023-11-15T15:16:03.641Z,8.41
2023-11-15T15:18:36.177Z,8.41
2023-11-15T15:21:05.333Z,8.42
2023-11-15T15:23:32.758Z,8.43
2023-11-15T15:25:59.860Z,8.44
2023-11-15T15:28:27.409Z,8.45
2023-11-15T15:30:55.215Z,8.45
2023-11-15T15:33:22.443Z,8.45
2023-11-15T15:35:50.026Z,8.44
2023-11-15T15:38:17.137Z,8.44
2023-11-15T15:40:44.966Z,8.43
2023-11-15T15:43:12.194Z,8.43
2023-11-15T15:45:39.178Z,8.43
2023-11-15T15:48:06.815Z,8.42
2023-11-15T15:50:34.302Z,8.42
2023-11-15T15:53:01.532Z,8.41
2023-11-15T15:55:28.598Z,8.41
2023-11-15T15:57:55.674Z,8.40
2023-11-15T16:00:24.260Z,8.39
2023-11-15T16:02:52.020Z,8.38
2023-11-15T16:05:20.265Z,8.37
2023-11-15T16:07:47.193Z,8.35
2023-11-15T16:10:15.062Z,8.34
2023-11-15T16:12:41.957Z,8.33
2023-11-15T16:15:14.567Z,8.33
2023-11-15T16:17:42.154Z,8.33
2023-11-15T16:20:18.982Z,8.33
2023-11-15T16:22:46.004Z,8.34
2023-11-15T16:25:13.104Z,8.36
2023-11-15T16:27:40.542Z,8.37
2023-11-15T16:30:10.807Z,8.38
2023-11-15T16:32:38.175Z,8.39
2023-11-15T16:35:06.823Z,8.41
2023-11-15T16:37:36.986Z,8.41
2023-11-15T16:40:11.190Z,8.42
2023-11-15T16:42:39.914Z,8.43
2023-11-15T16:45:08.725Z,8.43
2023-11-15T16:47:37.434Z,8.43
2023-11-15T16:50:05.599Z,8.43
2023-11-15T16:52:36.169Z,8.42
2023-11-15T16:55:04.242Z,8.41
2023-11-15T16:57:31.782Z,8.40
2023-11-15T17:00:00.440Z,8.39
2023-11-15T17:02:27.960Z,8.37
2023-11-15T17:04:55.173Z,8.36
2023-11-15T17:07:22.817Z,8.34
2023-11-15T17:09:53.224Z,8.34
2023-11-15T17:12:21.081Z,8.33
2023-11-15T17:14:48.451Z,8.32
2023-11-15T17:17:17.049Z,8.32
2023-11-15T17:19:45.924Z,8.33
2023-11-15T17:22:14.768Z,8.33
2023-11-15T17:24:44.409Z,8.33
2023-11-15T17:27:11.531Z,8.32
2023-11-15T17:29:39.269Z,8.32
2023-11-15T17:32:06.756Z,8.31
2023-11-15T17:34:34.461Z,8.32
2023-11-15T17:37:01.912Z,8.32
2023-11-15T17:39:30.325Z,8.30
2023-11-15T17:41:59.981Z,8.28
2023-11-15T17:44:30.065Z,8.26
2023-11-15T17:46:57.010Z,8.25
2023-11-15T17:49:24.068Z,8.22
2023-11-15T17:51:51.239Z,8.17
2023-11-15T17:54:20.066Z,8.14
2023-11-15T17:56:47.416Z,8.09
2023-11-15T17:59:14.454Z,8.05
2023-11-15T18:01:41.595Z,8.01
2023-11-15T18:04:10.917Z,7.97
2023-11-15T18:06:40.233Z,7.94
2023-11-15T18:09:10.634Z,7.91
2023-11-15T18:11:38.139Z,7.89
2023-11-15T18:14:08.181Z,7.87
2023-11-15T18:16:35.462Z,7.85
2023-11-15T18:19:13.227Z,7.85
2023-11-15T18:21:41.744Z,7.83
2023-11-15T18:24:10.799Z,7.83
2023-11-15T18:26:42.610Z,7.83
2023-11-15T18:29:11.931Z,7.83
2023-11-15T18:31:39.212Z,7.83
2023-11-15T18:34:06.490Z,7.84
2023-11-15T18:36:33.663Z,7.85
2023-11-15T18:39:02.086Z,7.84
2023-11-15T18:41:30.598Z,7.84
2023-11-15T18:43:58.067Z,7.83
2023-11-15T18:46:25.998Z,7.82
2023-11-15T18:48:53.043Z,7.81
2023-11-15T18:51:23.998Z,7.81
2023-11-15T18:53:51.277Z,7.79
2023-11-15T18:56:18.546Z,7.77
2023-11-15T18:58:46.661Z,7.77
2023-11-15T19:01:19.457Z,7.76
2023-11-15T19:03:47.511Z,7.76
2023-11-15T19:06:15.601Z,7.75
2023-11-15T19:08:46.147Z,7.75
2023-11-15T19:11:13.629Z,7.74
2023-11-15T19:13:44.125Z,7.72
2023-11-15T19:16:12.920Z,7.70
2023-11-15T19:18:41.190Z,7.68
2023-11-15T19:21:09.817Z,7.67
2023-11-15T19:23:39.712Z,7.65
2023-11-15T19:26:06.991Z,7.64
2023-11-15T19:28:34.248Z,7.62
2023-11-15T19:31:02.657Z,7.61
2023-11-15T19:33:29.941Z,7.59
2023-11-15T19:35:57.467Z,7.58
2023-11-15T19:38:24.596Z,7.56
2023-11-15T19:40:52.449Z,7.55
2023-11-15T19:43:19.670Z,7.53
2023-11-15T19:45:48.739Z,7.52
2023-11-15T19:48:25.238Z,7.50
2023-11-15T19:50:52.553Z,7.48
2023-11-15T19:53:21.936Z,7.47
2023-11-15T19:55:49.033Z,7.48
2023-11-15T19:58:18.862Z,7.47
2023-11-15T20:00:48.657Z,7.46
2023-11-15T20:03:15.695Z,7.45
2023-11-15T20:05:42.708Z,7.42
2023-11-15T20:08:10.345Z,7.40
2023-11-15T20:10:37.436Z,7.38
2023-11-15T20:13:06.860Z,7.37
2023-11-15T20:15:38.386Z,7.36
2023-11-15T20:18:05.452Z,7.34
2023-11-15T20:20:32.719Z,7.31
2023-11-15T20:23:01.030Z,7.29
2023-11-15T20:25:27.902Z,7.29
2023-11-15T20:27:54.890Z,7.29
2023-11-15T20:30:22.980Z,7.28
2023-11-15T20:32:51.773Z,7.28
2023-11-15T20:35:23.781Z,7.29
2023-11-15T20:37:50.716Z,7.29
2023-11-15T20:40:17.731Z,7.29
2023-11-15T20:42:48.195Z,7.28
2023-11-15T20:45:15.835Z,7.29
2023-11-15T20:47:43.030Z,7.29
2023-11-15T20:50:10.271Z,7.29
2023-11-15T20:52:37.785Z,7.29
2023-11-15T20:55:11.101Z,7.28
2023-11-15T20:57:38.364Z,7.28
2023-11-15T21:00:14.507Z,7.28
2023-11-15T21:02:41.678Z,7.27
2023-11-15T21:05:09.229Z,7.27
2023-11-15T21:07:36.675Z,7.28
2023-11-15T21:10:04.745Z,7.28
2023-11-15T21:12:32.326Z,7.28
2023-11-15T21:14:59.546Z,7.29
2023-11-15T21:17:27.554Z,7.29
2023-11-15T21:19:54.514Z,7.29
2023-11-15T21:22:25.490Z,7.29
2023-11-15T21:24:52.602Z,7.29
2023-11-15T21:27:19.746Z,7.28
2023-11-15T21:29:46.928Z,7.28
2023-11-15T21:32:13.914Z,7.27
2023-11-15T21:34:41.096Z,7.27
2023-11-15T21:37:16.058Z,7.25
2023-11-15T21:39:45.981Z,7.26
2023-11-15T21:42:13.053Z,7.25
2023-11-15T21:44:44.444Z,7.25
2023-11-15T21:47:12.207Z,7.24
2023-11-15T21:49:39.332Z,7.24
2023-11-15T21:52:08.221Z,7.23
2023-11-15T21:54:37.500Z,7.21
2023-11-15T21:57:05.814Z,7.20
2023-11-15T21:59:33.045Z,7.19
2023-11-15T22:02:03.539Z,7.16
2023-11-15T22:04:30.649Z,7.14
2023-11-15T22:07:02.495Z,7.12
2023-11-15T22:09:32.003Z,7.10
2023-11-15T22:12:00.778Z,7.09
2023-11-15T22:14:28.443Z,7.08
2023-11-15T22:16:55.469Z,7.07
2023-11-15T22:19:22.500Z,7.06
2023-11-15T22:21:50.331Z,7.04
2023-11-15T22:24:17.677Z,7.03
2023-11-15T22:26:44.690Z,7.01
2023-11-15T22:29:11.709Z,6.99
2023-11-15T22:31:38.918Z,6.98
2023-11-15T22:34:05.833Z,6.95
2023-11-15T22:36:32.798Z,6.94
2023-11-15T22:39:01.748Z,6.93
2023-11-15T22:41:29.457Z,6.91
2023-11-15T22:43:56.747Z,6.90
2023-11-15T22:46:24.277Z,6.88
2023-11-15T22:48:51.524Z,6.87
2023-11-15T22:51:18.907Z,6.86
2023-11-15T22:53:45.885Z,6.85
2023-11-15T22:56:12.868Z,6.83
2023-11-15T22:58:39.817Z,6.82
2023-11-15T23:01:07.194Z,6.80
2023-11-15T23:03:34.629Z,6.78
2023-11-15T23:06:01.913Z,6.76
2023-11-15T23:08:30.567Z,6.73
2023-11-15T23:10:57.571Z,6.69
2023-11-15T23:13:24.544Z,6.66
2023-11-15T23:15:52.622Z,6.63
2023-11-15T23:18:21.225Z,6.60
2023-11-15T23:20:48.583Z,6.56
2023-11-15T23:23:18.396Z,6.53
2023-11-15T23:25:48.351Z,6.51
2023-11-15T23:28:15.936Z,6.47
2023-11-15T23:30:43.688Z,6.44
2023-11-15T23:33:10.682Z,6.43
2023-11-15T23:35:38.374Z,6.42
2023-11-15T23:38:06.334Z,6.42
2023-11-15T23:40:34.102Z,6.41
2023-11-15T23:43:01.057Z,6.40
2023-11-15T23:45:29.380Z,6.40
2023-11-15T23:47:56.517Z,6.40
2023-11-15T23:50:26.467Z,6.41
2023-11-15T23:52:53.600Z,6.40
2023-11-15T23:55:20.898Z,6.40
2023-11-15T23:57:48.420Z,6.39
